Sipes Mill, Pennsylvania
Current Conditions -  °F | °C
As of 6:53 PM on Friday 19 Dec 2014 (Local Time) from KHGR Reporting Station
Clear Clear  
Wind Chill: 23°   Ceiling: Unl
Heat Index: 31°   Visibility: 10mi
Dew Point: 20°   Wind: 8mph
Humidity: 64%   Direction: 330°NNW
Pressure: 30.19"   Gusts: NA
Location:  39.8811°N, 78.1402°W
Report Text: KHGR 192353Z AUTO 33007KT 10SM CLR M01/M07 A3019 RMK AO2 SLP240 T10061067 10044 21006 51012
Loading
Personal Weather Stations






























Interactive Weather Map New forecast layout! Learn more

10-Day Weather Forecast

Advertisements
Track Severe Weather on mobile